Aviation Digital Data Service (ADDS)

Output produced by METARs form (2227 UTC 24 March 2019)
found at http://www.aviationweather.gov/metar/data/
 
TAF GFLL 241100Z 2412/2518 29007KT 8000 HZ SCT014 
     TEMPO 30010KT SKC 
     TEMPO 2418/2422 28008KT 8000 HZ FEW015 
     TEMPO 2506/2510 VRB02KT 5000 BR SCT011 
     BECMG 2514/2516 8000 HZ NSC